createdAt,value
2019-03-26T00:02:45.708Z,5.90
2019-03-26T00:05:32.711Z,5.96
2019-03-26T00:08:19.264Z,5.92
2019-03-26T00:11:05.621Z,5.96
2019-03-26T00:13:52.135Z,6.00
2019-03-26T00:16:38.195Z,6.07
2019-03-26T00:19:24.430Z,6.12
2019-03-26T00:22:11.070Z,6.10
2019-03-26T00:24:57.776Z,6.18
2019-03-26T00:27:43.919Z,6.14
2019-03-26T00:30:30.155Z,6.25
2019-03-26T00:33:16.595Z,6.10
2019-03-26T00:36:04.066Z,6.06
2019-03-26T00:38:50.627Z,6.08
2019-03-26T00:41:38.329Z,6.10
2019-03-26T00:44:24.317Z,6.20
2019-03-26T00:47:10.710Z,6.06
2019-03-26T00:49:57.264Z,6.06
2019-03-26T00:52:44.795Z,6.03
2019-03-26T00:55:32.143Z,6.12
2019-03-26T00:58:20.121Z,6.07
2019-03-26T01:01:06.303Z,6.20
2019-03-26T01:03:54.949Z,6.07
2019-03-26T01:06:41.067Z,6.09
2019-03-26T01:09:27.464Z,5.93
2019-03-26T01:12:13.867Z,6.10
2019-03-26T01:15:00.327Z,5.95
2019-03-26T01:17:46.252Z,5.96
2019-03-26T01:20:32.836Z,6.10
2019-03-26T01:23:19.479Z,5.94
2019-03-26T01:26:05.677Z,5.87
2019-03-26T01:28:51.879Z,6.06
2019-03-26T01:31:38.063Z,6.02
2019-03-26T01:34:24.425Z,6.04
2019-03-26T01:37:10.519Z,5.99
2019-03-26T01:39:56.503Z,6.06
2019-03-26T01:42:44.039Z,5.94
2019-03-26T01:45:30.475Z,5.98
2019-03-26T01:48:16.696Z,5.97
2019-03-26T01:51:03.272Z,6.07
2019-03-26T01:53:49.688Z,6.06
2019-03-26T01:56:35.787Z,6.07
2019-03-26T01:59:24.156Z,5.86
2019-03-26T02:02:10.268Z,5.99
2019-03-26T02:05:00.170Z,6.09
2019-03-26T02:07:44.929Z,5.80
2019-03-26T02:10:31.220Z,5.86
2019-03-26T02:13:18.035Z,5.78
2019-03-26T02:16:04.233Z,5.70
2019-03-26T02:18:52.272Z,5.75
2019-03-26T02:21:38.644Z,6.02
2019-03-26T02:24:25.154Z,5.80
2019-03-26T02:27:12.436Z,5.69
2019-03-26T02:29:58.524Z,5.74
2019-03-26T02:32:44.541Z,5.74
2019-03-26T02:35:30.886Z,5.86
2019-03-26T02:38:17.081Z,5.92
2019-03-26T02:41:03.644Z,5.84
2019-03-26T02:43:50.105Z,5.81
2019-03-26T02:46:36.524Z,5.71
2019-03-26T02:49:23.100Z,5.57
2019-03-26T02:52:09.602Z,5.84
2019-03-26T02:54:57.219Z,5.77
2019-03-26T02:57:43.601Z,5.78
2019-03-26T03:00:30.065Z,5.77
2019-03-26T03:03:16.138Z,5.73
2019-03-26T03:06:02.778Z,5.57
2019-03-26T03:08:49.050Z,5.81
2019-03-26T03:11:34.979Z,6.01
2019-03-26T03:14:21.682Z,5.81
2019-03-26T03:17:08.506Z,5.79
2019-03-26T03:19:54.427Z,5.83
2019-03-26T03:22:40.913Z,5.61
2019-03-26T03:25:27.267Z,5.61
2019-03-26T03:28:13.315Z,5.85
2019-03-26T03:30:59.910Z,5.93
2019-03-26T03:33:46.270Z,5.90
2019-03-26T03:36:32.604Z,5.61
2019-03-26T03:39:19.123Z,5.82
2019-03-26T03:42:05.415Z,6.02
2019-03-26T03:44:51.529Z,5.99
2019-03-26T03:47:38.729Z,5.91
2019-03-26T03:50:28.429Z,6.02
2019-03-26T03:53:17.269Z,5.94
2019-03-26T03:56:04.859Z,5.77
2019-03-26T03:58:51.399Z,6.00
2019-03-26T04:01:38.335Z,5.51
2019-03-26T04:04:24.328Z,5.91
2019-03-26T04:07:10.844Z,5.82
2019-03-26T04:09:57.365Z,5.60
2019-03-26T04:12:43.631Z,5.84
2019-03-26T04:15:34.361Z,5.88
2019-03-26T04:18:18.337Z,5.67
2019-03-26T04:21:05.044Z,5.58
2019-03-26T04:23:52.826Z,5.58
2019-03-26T04:26:38.873Z,5.69
2019-03-26T04:29:25.073Z,5.78
2019-03-26T04:32:11.636Z,5.94
2019-03-26T04:34:57.972Z,5.72
2019-03-26T04:37:44.193Z,5.87
2019-03-26T04:40:30.816Z,5.93
2019-03-26T04:43:18.959Z,5.77
2019-03-26T04:46:05.356Z,5.87
2019-03-26T04:48:52.153Z,5.72
2019-03-26T04:51:38.695Z,5.79
2019-03-26T04:54:24.612Z,5.93
2019-03-26T04:57:11.333Z,5.54
2019-03-26T04:59:57.605Z,5.67
2019-03-26T05:02:43.668Z,5.87
2019-03-26T05:05:29.777Z,5.64
2019-03-26T05:08:16.059Z,5.59
2019-03-26T05:11:02.647Z,5.50
2019-03-26T05:13:49.008Z,5.57
2019-03-26T05:16:35.148Z,5.51
2019-03-26T05:19:21.377Z,5.72
2019-03-26T05:22:07.496Z,5.60
2019-03-26T05:24:53.997Z,5.63
2019-03-26T05:27:45.739Z,5.86
2019-03-26T05:30:28.872Z,5.97
2019-03-26T05:33:15.060Z,5.93
2019-03-26T05:36:01.498Z,5.93
2019-03-26T05:38:47.973Z,5.93
2019-03-26T05:41:34.676Z,5.93
2019-03-26T05:44:20.831Z,5.94
2019-03-26T05:47:08.005Z,6.09
2019-03-26T05:49:54.009Z,6.01
2019-03-26T05:52:40.220Z,5.67
2019-03-26T05:55:26.976Z,5.61
2019-03-26T05:58:14.429Z,5.56
2019-03-26T06:01:00.687Z,5.73
2019-03-26T06:03:46.948Z,5.99
2019-03-26T06:06:32.888Z,6.00
2019-03-26T06:09:19.496Z,6.27
2019-03-26T06:12:05.998Z,6.30
2019-03-26T06:14:52.248Z,6.54
2019-03-26T06:17:38.972Z,6.38
2019-03-26T06:20:25.307Z,6.36
2019-03-26T06:23:12.672Z,6.50
2019-03-26T06:25:59.168Z,6.59
2019-03-26T06:28:45.473Z,6.34
2019-03-26T06:31:32.187Z,6.00
2019-03-26T06:34:18.549Z,6.26
2019-03-26T06:37:17.087Z,6.61
2019-03-26T06:39:53.149Z,6.75
2019-03-26T06:42:40.049Z,6.82
2019-03-26T06:45:26.393Z,6.76
2019-03-26T06:48:12.333Z,6.55
2019-03-26T06:50:59.284Z,6.60
2019-03-26T06:53:45.556Z,6.73
2019-03-26T06:56:31.669Z,6.67
2019-03-26T06:59:18.430Z,6.69
2019-03-26T07:02:04.843Z,6.95
2019-03-26T07:04:51.074Z,6.81
2019-03-26T07:07:37.266Z,6.68
2019-03-26T07:10:27.151Z,6.85
2019-03-26T07:13:14.428Z,6.76
2019-03-26T07:16:02.910Z,6.65
2019-03-26T07:18:49.285Z,6.90
2019-03-26T07:21:35.393Z,7.22
2019-03-26T07:24:21.612Z,7.43
2019-03-26T07:27:08.220Z,7.52
2019-03-26T07:29:54.509Z,7.56
2019-03-26T07:32:40.461Z,6.97
2019-03-26T07:35:30.650Z,7.23
2019-03-26T07:38:17.277Z,7.54
2019-03-26T07:41:03.602Z,8.23
2019-03-26T07:43:50.316Z,7.59
2019-03-26T07:46:36.573Z,7.70
2019-03-26T07:49:22.718Z,6.76
2019-03-26T07:52:09.497Z,6.68
2019-03-26T07:54:55.821Z,6.85
2019-03-26T07:57:41.919Z,7.42
2019-03-26T08:00:36.122Z,6.81
2019-03-26T08:03:21.865Z,7.17
2019-03-26T08:06:08.289Z,7.06
2019-03-26T08:08:54.736Z,7.52
2019-03-26T08:11:41.006Z,7.63
2019-03-26T08:14:27.526Z,9.40
2019-03-26T08:17:14.578Z,8.08
2019-03-26T08:20:00.726Z,9.82
2019-03-26T08:22:47.609Z,10.11
2019-03-26T08:25:34.514Z,10.12
2019-03-26T08:28:20.810Z,11.48
2019-03-26T08:31:06.938Z,9.69
2019-03-26T08:33:53.613Z,10.36
2019-03-26T08:36:40.238Z,9.54
2019-03-26T08:39:26.709Z,10.54
2019-03-26T08:42:12.765Z,10.58
2019-03-26T08:44:59.062Z,9.54
2019-03-26T08:47:45.785Z,9.44
2019-03-26T08:50:32.375Z,8.97
2019-03-26T08:53:19.105Z,8.69
2019-03-26T08:56:06.076Z,8.26
2019-03-26T08:58:52.489Z,8.61
2019-03-26T09:01:38.971Z,8.48
2019-03-26T09:04:26.996Z,9.00
2019-03-26T09:07:14.038Z,9.61
2019-03-26T09:10:00.416Z,8.68
2019-03-26T09:12:47.073Z,9.11
2019-03-26T09:15:33.385Z,9.64
2019-03-26T09:18:19.477Z,9.15
2019-03-26T09:21:05.683Z,9.88
2019-03-26T09:23:52.386Z,10.46
2019-03-26T09:26:38.733Z,9.23
2019-03-26T09:29:25.165Z,8.48
2019-03-26T09:32:11.246Z,8.47
2019-03-26T09:34:57.576Z,8.54
2019-03-26T09:37:43.699Z,8.22
2019-03-26T09:40:30.060Z,8.40
2019-03-26T09:43:17.018Z,7.91
2019-03-26T09:46:03.277Z,7.84
2019-03-26T09:48:51.898Z,7.72
2019-03-26T09:51:38.633Z,7.53
2019-03-26T09:54:24.630Z,8.18
2019-03-26T09:57:10.982Z,8.02
2019-03-26T09:59:57.142Z,8.42
2019-03-26T10:02:43.848Z,8.79
2019-03-26T10:05:30.214Z,8.05
2019-03-26T10:08:18.050Z,8.04
2019-03-26T10:11:04.438Z,7.45
2019-03-26T10:13:50.811Z,7.67
2019-03-26T10:16:37.118Z,7.61
2019-03-26T10:19:24.635Z,7.65
2019-03-26T10:22:10.886Z,7.77
2019-03-26T10:24:57.042Z,7.63
2019-03-26T10:27:43.910Z,7.52
2019-03-26T10:30:40.169Z,7.85
2019-03-26T10:33:26.218Z,7.81
2019-03-26T10:36:12.763Z,8.04
2019-03-26T10:39:05.320Z,7.73
2019-03-26T10:41:47.006Z,8.13
2019-03-26T10:44:33.504Z,8.01
2019-03-26T10:47:20.215Z,7.99
2019-03-26T10:50:06.677Z,8.10
2019-03-26T10:52:53.637Z,7.77
2019-03-26T10:55:39.730Z,7.73
2019-03-26T10:58:25.919Z,7.86
2019-03-26T11:01:12.126Z,8.22
2019-03-26T11:03:59.998Z,8.26
2019-03-26T11:06:46.279Z,8.50
2019-03-26T11:09:32.408Z,9.84
2019-03-26T11:12:19.640Z,9.54
2019-03-26T11:15:08.036Z,9.25
2019-03-26T11:17:54.298Z,9.01
2019-03-26T11:20:40.499Z,9.13
2019-03-26T11:23:26.659Z,9.21
2019-03-26T11:26:12.909Z,9.60
2019-03-26T11:28:59.229Z,9.70
2019-03-26T11:31:45.791Z,9.70
2019-03-26T11:34:31.895Z,10.15
2019-03-26T11:37:18.563Z,9.80
2019-03-26T11:40:05.120Z,9.72
2019-03-26T11:42:51.515Z,9.44
2019-03-26T11:45:37.610Z,9.31
2019-03-26T11:48:23.839Z,9.33
2019-03-26T11:51:10.030Z,9.26
2019-03-26T11:53:57.526Z,8.86
2019-03-26T11:56:44.436Z,9.10
2019-03-26T11:59:30.915Z,8.64
2019-03-26T12:02:17.732Z,8.46
2019-03-26T12:05:05.208Z,8.38
2019-03-26T12:07:51.080Z,8.56
2019-03-26T12:10:37.570Z,8.40
2019-03-26T12:13:23.484Z,8.43
2019-03-26T12:16:09.829Z,8.22
2019-03-26T12:18:59.803Z,7.76
2019-03-26T12:21:50.459Z,7.74
2019-03-26T12:24:36.766Z,8.04
2019-03-26T12:27:24.027Z,8.11
2019-03-26T12:30:11.179Z,8.04
2019-03-26T12:32:58.507Z,8.30
2019-03-26T12:35:44.931Z,8.16
2019-03-26T12:38:32.555Z,7.84
2019-03-26T12:41:19.327Z,7.77
2019-03-26T12:44:05.653Z,7.67
2019-03-26T12:46:51.839Z,8.03
2019-03-26T12:49:37.911Z,8.12
2019-03-26T12:52:24.793Z,8.11
2019-03-26T12:55:10.809Z,8.10
2019-03-26T12:57:56.855Z,8.24
2019-03-26T13:00:43.325Z,8.44
2019-03-26T13:03:29.680Z,8.43
2019-03-26T13:06:16.043Z,8.87
2019-03-26T13:09:02.392Z,8.49
2019-03-26T13:11:48.760Z,8.58
2019-03-26T13:14:35.324Z,8.83
2019-03-26T13:17:21.960Z,8.86
2019-03-26T13:20:08.839Z,8.54
2019-03-26T13:22:56.196Z,8.66
2019-03-26T13:25:42.644Z,8.73
2019-03-26T13:28:29.743Z,8.57
2019-03-26T13:31:15.808Z,8.43
2019-03-26T13:34:01.865Z,8.42
2019-03-26T13:36:47.905Z,8.57
2019-03-26T13:39:35.233Z,8.58
2019-03-26T13:42:21.569Z,8.77
2019-03-26T13:45:08.078Z,8.89
2019-03-26T13:47:54.262Z,9.30
2019-03-26T13:50:40.936Z,8.90
2019-03-26T13:53:27.601Z,8.86
2019-03-26T13:56:13.620Z,9.03
2019-03-26T13:58:59.968Z,8.78
2019-03-26T14:01:46.020Z,8.79
2019-03-26T14:04:32.316Z,8.66
2019-03-26T14:07:20.485Z,9.05
2019-03-26T14:10:07.068Z,8.98
2019-03-26T14:12:53.566Z,8.63
2019-03-26T14:15:40.120Z,8.60
2019-03-26T14:18:26.368Z,8.59
2019-03-26T14:21:13.159Z,8.59
2019-03-26T14:23:59.784Z,8.81
2019-03-26T14:26:46.285Z,8.58
2019-03-26T14:29:32.491Z,8.70
2019-03-26T14:32:19.098Z,8.59
2019-03-26T14:35:06.221Z,8.96
2019-03-26T14:37:55.385Z,8.52
2019-03-26T14:40:53.994Z,8.40
2019-03-26T14:43:30.050Z,8.21
2019-03-26T14:46:16.325Z,8.16
2019-03-26T14:49:03.241Z,8.34
2019-03-26T14:51:49.541Z,8.48
2019-03-26T14:54:35.528Z,8.22
2019-03-26T14:57:22.033Z,8.39
2019-03-26T15:00:08.763Z,8.56
2019-03-26T15:02:55.245Z,8.52
2019-03-26T15:05:41.477Z,8.67
2019-03-26T15:08:27.741Z,8.56
2019-03-26T15:11:13.723Z,8.66
2019-03-26T15:14:01.372Z,8.59
2019-03-26T15:16:47.857Z,8.52
2019-03-26T15:19:34.528Z,8.60
2019-03-26T15:22:20.660Z,8.61
2019-03-26T15:25:07.167Z,8.43
2019-03-26T15:27:53.413Z,8.52
2019-03-26T15:30:39.966Z,8.40
2019-03-26T15:33:26.262Z,8.51
2019-03-26T15:36:12.368Z,8.52
2019-03-26T15:38:58.938Z,8.58
2019-03-26T15:41:45.100Z,8.53
2019-03-26T15:44:31.473Z,8.41
2019-03-26T15:47:18.278Z,8.30
2019-03-26T15:50:05.545Z,8.23
2019-03-26T15:52:51.866Z,8.35
2019-03-26T15:55:38.571Z,8.40
2019-03-26T15:58:24.854Z,8.24
2019-03-26T16:01:14.212Z,8.46
2019-03-26T16:04:00.885Z,8.35
2019-03-26T16:06:46.788Z,8.18
2019-03-26T16:09:34.005Z,8.09
2019-03-26T16:12:20.316Z,8.46
2019-03-26T16:15:06.810Z,8.36
2019-03-26T16:17:52.874Z,8.27
2019-03-26T16:20:41.108Z,8.29
2019-03-26T16:23:27.462Z,8.40
2019-03-26T16:26:13.981Z,8.37
2019-03-26T16:29:03.437Z,8.40
2019-03-26T16:31:49.958Z,8.45
2019-03-26T16:34:36.226Z,8.53
2019-03-26T16:37:23.858Z,8.31
2019-03-26T16:40:10.570Z,8.56
2019-03-26T16:42:56.720Z,8.39
2019-03-26T16:45:44.796Z,8.37
2019-03-26T16:48:31.215Z,8.45
2019-03-26T16:51:17.791Z,8.51
2019-03-26T16:54:05.429Z,8.53
2019-03-26T16:56:51.793Z,8.42
2019-03-26T16:59:39.257Z,8.55
2019-03-26T17:02:25.884Z,8.60
2019-03-26T17:05:16.320Z,8.74
2019-03-26T17:08:15.315Z,8.42
2019-03-26T17:11:18.829Z,8.45
2019-03-26T17:14:05.147Z,8.41
2019-03-26T17:16:51.861Z,8.44
2019-03-26T17:19:38.322Z,8.56
2019-03-26T17:22:24.741Z,8.38
2019-03-26T17:25:11.712Z,8.58
2019-03-26T17:27:58.382Z,8.54
2019-03-26T17:30:44.886Z,8.44
2019-03-26T17:33:32.045Z,8.44
2019-03-26T17:36:18.097Z,8.25
2019-03-26T17:39:06.578Z,8.32
2019-03-26T17:41:53.363Z,8.30
2019-03-26T17:44:39.941Z,8.39
2019-03-26T17:47:26.063Z,8.58
2019-03-26T17:50:13.695Z,8.44
2019-03-26T17:52:59.790Z,8.51
2019-03-26T17:55:46.479Z,8.44
2019-03-26T17:58:33.315Z,8.53
2019-03-26T18:01:19.603Z,8.45
2019-03-26T18:04:06.215Z,8.36
2019-03-26T18:06:53.781Z,8.41
2019-03-26T18:09:40.139Z,8.41
2019-03-26T18:12:31.119Z,8.52
2019-03-26T18:15:15.607Z,8.53
2019-03-26T18:18:02.608Z,8.44
2019-03-26T18:20:48.822Z,8.32
2019-03-26T18:23:35.056Z,8.21
2019-03-26T18:26:22.022Z,8.52
2019-03-26T18:29:08.382Z,8.31
2019-03-26T18:31:54.503Z,8.52
2019-03-26T18:34:41.794Z,8.50
2019-03-26T18:37:32.571Z,8.39
2019-03-26T18:40:19.859Z,8.34
2019-03-26T18:43:06.454Z,8.35
2019-03-26T18:45:52.882Z,8.40
2019-03-26T18:48:41.505Z,8.33
2019-03-26T18:51:27.863Z,8.38
2019-03-26T18:54:14.070Z,8.44
2019-03-26T18:57:00.530Z,8.62
2019-03-26T18:59:46.623Z,8.39
2019-03-26T19:02:33.411Z,8.55
2019-03-26T19:05:19.883Z,8.21
2019-03-26T19:08:06.787Z,8.51
2019-03-26T19:10:53.108Z,8.29
2019-03-26T19:13:39.409Z,8.29
2019-03-26T19:16:25.771Z,8.16
2019-03-26T19:19:11.859Z,8.35
2019-03-26T19:21:58.331Z,8.13
2019-03-26T19:24:44.794Z,8.34
2019-03-26T19:27:31.259Z,8.34
2019-03-26T19:30:17.479Z,8.23
2019-03-26T19:33:03.971Z,8.29
2019-03-26T19:35:50.590Z,8.21
2019-03-26T19:38:36.765Z,8.16
2019-03-26T19:41:23.831Z,8.02
2019-03-26T19:44:10.720Z,8.03
2019-03-26T19:46:58.403Z,8.25
2019-03-26T19:49:44.994Z,8.29
2019-03-26T19:52:31.551Z,8.30
2019-03-26T19:55:17.731Z,8.33
2019-03-26T19:58:04.184Z,8.18
2019-03-26T20:00:50.740Z,8.09
2019-03-26T20:03:36.871Z,8.11
2019-03-26T20:06:24.115Z,8.23
2019-03-26T20:09:10.310Z,8.00
2019-03-26T20:11:56.335Z,8.00
2019-03-26T20:14:43.424Z,8.02
2019-03-26T20:17:30.339Z,7.87
2019-03-26T20:20:17.559Z,7.87
2019-03-26T20:23:04.787Z,8.08
2019-03-26T20:25:51.706Z,7.96
2019-03-26T20:28:38.301Z,7.95
2019-03-26T20:31:25.107Z,8.04
2019-03-26T20:34:11.211Z,7.95
2019-03-26T20:36:57.402Z,8.16
2019-03-26T20:39:44.313Z,8.00
2019-03-26T20:42:30.820Z,8.06
2019-03-26T20:45:17.523Z,8.06
2019-03-26T20:48:04.232Z,7.87
2019-03-26T20:50:50.853Z,8.01
2019-03-26T20:53:37.547Z,7.78
2019-03-26T20:56:24.780Z,7.79
2019-03-26T20:59:10.999Z,7.73
2019-03-26T21:01:57.060Z,7.96
2019-03-26T21:04:44.040Z,7.82
2019-03-26T21:07:30.494Z,8.10
2019-03-26T21:10:16.719Z,7.85
2019-03-26T21:13:03.652Z,7.93
2019-03-26T21:15:57.132Z,7.80
2019-03-26T21:18:38.739Z,7.86
2019-03-26T21:21:25.375Z,7.53
2019-03-26T21:24:11.598Z,7.84
2019-03-26T21:26:58.324Z,7.80
2019-03-26T21:29:44.530Z,7.90
2019-03-26T21:32:31.219Z,7.56
2019-03-26T21:35:18.427Z,7.42
2019-03-26T21:38:05.280Z,7.43
2019-03-26T21:40:51.475Z,7.59
2019-03-26T21:43:38.652Z,7.66
2019-03-26T21:46:25.807Z,7.61
2019-03-26T21:49:13.011Z,7.46
2019-03-26T21:52:00.865Z,7.58
2019-03-26T21:54:47.240Z,7.85
2019-03-26T21:57:35.230Z,7.75
2019-03-26T22:00:21.527Z,7.77
2019-03-26T22:03:07.833Z,7.82
2019-03-26T22:05:53.942Z,7.77
2019-03-26T22:08:40.011Z,7.69
2019-03-26T22:11:26.569Z,7.48
2019-03-26T22:14:18.266Z,7.35
2019-03-26T22:17:00.918Z,7.24
2019-03-26T22:19:47.488Z,7.21
2019-03-26T22:22:34.179Z,7.21
2019-03-26T22:25:20.225Z,7.16
2019-03-26T22:28:06.901Z,6.92
2019-03-26T22:30:52.912Z,6.96
2019-03-26T22:33:39.132Z,6.68
2019-03-26T22:36:26.860Z,6.63
2019-03-26T22:39:13.117Z,6.66
2019-03-26T22:41:59.669Z,6.83
2019-03-26T22:44:46.962Z,6.74
2019-03-26T22:47:33.371Z,6.79
2019-03-26T22:50:19.714Z,6.66
2019-03-26T22:53:06.470Z,6.83
2019-03-26T22:55:52.917Z,6.75
2019-03-26T22:58:39.621Z,6.70
2019-03-26T23:01:26.205Z,6.53
2019-03-26T23:04:12.299Z,6.49
2019-03-26T23:06:58.859Z,6.73
2019-03-26T23:09:45.305Z,6.72
2019-03-26T23:12:31.415Z,6.49
2019-03-26T23:15:22.340Z,6.42
2019-03-26T23:18:09.281Z,6.59
2019-03-26T23:20:55.813Z,6.60
2019-03-26T23:23:42.578Z,6.63
2019-03-26T23:26:29.121Z,6.53
2019-03-26T23:29:15.436Z,6.58
2019-03-26T23:32:01.998Z,6.61
2019-03-26T23:34:48.686Z,6.60
2019-03-26T23:37:35.097Z,6.69
2019-03-26T23:40:21.758Z,6.65
2019-03-26T23:43:08.265Z,6.63
2019-03-26T23:45:55.068Z,6.64
2019-03-26T23:48:41.451Z,6.70
2019-03-26T23:51:27.765Z,6.77
2019-03-26T23:54:13.925Z,6.82
2019-03-26T23:57:00.795Z,6.82
2019-03-26T23:59:47.110Z,6.83
